Time;durP1;ratioP1;P1;durP2;ratioP2;P2;SDS_P1;SDS_P2;PMS_P1;PMS_P2;Temp;Humidity;BMP_temperature;BMP_pressure;BME280_temperature;BME280_humidity;BME280_pressure;Samples;Min_cycle;Max_cycle;Signal;HPM_P1;HPM_P2
2021/05/28 00:00:08;;;;;;;0.80;0.70;;;;;;;;;;5049145;28;20396;-68
2021/05/28 00:02:34;;;;;;;0.80;0.50;;;;;;;;;;5041108;28;20424;-69
2021/05/28 00:05:00;;;;;;;0.70;0.50;;;;;;;;;;5050994;28;20400;-69
2021/05/28 00:07:26;;;;;;;1.07;0.90;;;;;;;;;;5032193;28;20814;-69
2021/05/28 00:09:52;;;;;;;4.83;0.90;;;;;;;;;;5030568;28;21066;-68
2021/05/28 00:12:18;;;;;;;0.70;0.50;;;;;;;;;;5029610;28;20915;-69
2021/05/28 00:14:44;;;;;;;0.80;0.57;;;;;;;;;;5027176;28;20953;-69
2021/05/28 00:17:10;;;;;;;1.40;0.70;;;;;;;;;;5051042;28;20494;-68
2021/05/28 00:19:36;;;;;;;0.80;0.60;;;;;;;;;;5049899;28;20533;-68
2021/05/28 00:22:02;;;;;;;1.53;0.60;;;;;;;;;;5047154;28;20401;-69
2021/05/28 00:24:28;;;;;;;0.97;0.70;;;;;;;;;;5042122;28;20420;-69
2021/05/28 00:26:54;;;;;;;1.97;1.87;;;;;;;;;;5050438;28;20600;-69
2021/05/28 00:29:20;;;;;;;2.00;0.60;;;;;;;;;;5046427;28;20932;-68
2021/05/28 00:31:46;;;;;;;0.70;0.50;;;;;;;;;;5029580;28;20374;-68
2021/05/28 00:34:12;;;;;;;0.90;0.77;;;;;;;;;;5039488;28;20502;-69
2021/05/28 00:36:38;;;;;;;1.07;0.80;;;;;;;;;;5050047;28;20418;-68
2021/05/28 00:39:04;;;;;;;1.00;0.60;;;;;;;;;;5032070;28;20409;-68
2021/05/28 00:41:30;;;;;;;1.00;0.70;;;;;;;;;;5051860;28;20377;-69
2021/05/28 00:43:56;;;;;;;0.80;0.70;;;;;;;;;;5034639;28;20890;-68
2021/05/28 00:46:26;;;;;;;0.93;0.60;;;;;;;;;;5039416;28;20508;-69
2021/05/28 00:48:52;;;;;;;1.67;0.97;;;;;;;;;;5044532;28;20536;-69
2021/05/28 00:51:18;;;;;;;3.50;0.93;;;;;;;;;;5049164;28;20408;-69
2021/05/28 00:53:45;;;;;;;2.90;1.53;;;;;;;;;;5051351;28;20388;-68
2021/05/28 00:56:11;;;;;;;6.60;1.43;;;;;;;;;;5050877;28;20374;-68
2021/05/28 00:58:37;;;;;;;1.10;0.70;;;;;;;;;;5050374;28;20406;-68
2021/05/28 01:01:03;;;;;;;0.80;0.53;;;;;;;;;;5050900;28;20399;-68
2021/05/28 01:03:29;;;;;;;0.90;0.90;;;;;;;;;;5051887;28;20382;-69
2021/05/28 01:05:55;;;;;;;2.70;1.27;;;;;;;;;;5051598;28;20399;-69
2021/05/28 01:08:21;;;;;;;1.00;0.70;;;;;;;;;;5041228;28;20769;-69
2021/05/28 01:10:47;;;;;;;0.90;0.60;;;;;;;;;;5032668;28;20394;-69
2021/05/28 01:13:14;;;;;;;1.17;0.80;;;;;;;;;;5031925;28;20423;-69
2021/05/28 01:15:40;;;;;;;1.57;0.87;;;;;;;;;;5031754;28;20842;-69
2021/05/28 01:18:06;;;;;;;1.50;1.40;;;;;;;;;;5035775;28;20451;-69
2021/05/28 01:20:32;;;;;;;2.60;1.20;;;;;;;;;;5044779;28;20415;-69
2021/05/28 01:22:59;;;;;;;1.10;0.70;;;;;;;;;;5039876;28;20833;-69
2021/05/28 01:25:25;;;;;;;1.03;0.80;;;;;;;;;;5031771;28;20505;-69
2021/05/28 01:27:51;;;;;;;0.97;0.70;;;;;;;;;;5031494;28;20938;-69
2021/05/28 01:30:17;;;;;;;0.93;0.70;;;;;;;;;;5031188;28;20408;-69
2021/05/28 01:32:44;;;;;;;1.13;0.83;;;;;;;;;;5051572;28;20377;-69
2021/05/28 01:35:10;;;;;;;2.87;1.10;;;;;;;;;;5051545;28;20852;-69
2021/05/28 01:37:36;;;;;;;1.10;0.80;;;;;;;;;;5048599;28;20405;-69
2021/05/28 01:40:03;;;;;;;1.53;0.80;;;;;;;;;;5030647;28;20427;-69
2021/05/28 01:42:29;;;;;;;3.93;1.87;;;;;;;;;;5034352;28;20422;-69
2021/05/28 01:44:57;;;;;;;0.97;0.80;;;;;;;;;;5051405;28;20398;-69
2021/05/28 01:47:23;;;;;;;0.80;0.70;;;;;;;;;;5049876;28;20432;-69
2021/05/28 01:49:49;;;;;;;3.03;1.33;;;;;;;;;;5030451;28;20494;-68
2021/05/28 01:52:15;;;;;;;1.20;1.03;;;;;;;;;;5030938;28;20407;-68
2021/05/28 01:54:41;;;;;;;2.03;1.10;;;;;;;;;;5031437;28;20383;-69
2021/05/28 01:57:11;;;;;;;1.27;0.90;;;;;;;;;;5031265;28;20399;-68
2021/05/28 01:59:37;;;;;;;0.70;0.50;;;;;;;;;;5030227;28;20427;-69
2021/05/28 02:02:03;;;;;;;1.67;0.93;;;;;;;;;;5031098;28;20437;-69
2021/05/28 02:04:29;;;;;;;3.10;1.00;;;;;;;;;;5039850;28;20415;-68
2021/05/28 02:06:55;;;;;;;1.43;1.03;;;;;;;;;;5036563;28;20436;-69
2021/05/28 02:09:21;;;;;;;0.80;0.60;;;;;;;;;;5030055;28;20754;-69
2021/05/28 02:11:47;;;;;;;3.00;0.70;;;;;;;;;;5029388;28;20378;-69
2021/05/28 02:14:14;;;;;;;1.20;0.80;;;;;;;;;;5041613;28;20461;-69
2021/05/28 02:16:40;;;;;;;1.73;0.97;;;;;;;;;;5041135;28;20420;-69
2021/05/28 02:19:07;;;;;;;1.47;0.87;;;;;;;;;;5030153;28;20398;-69
2021/05/28 02:21:34;;;;;;;2.10;1.00;;;;;;;;;;5013447;28;20411;-69
2021/05/28 02:24:00;;;;;;;1.27;0.70;;;;;;;;;;5022657;28;20395;-69
2021/05/28 02:26:25;;;;;;;1.27;1.17;;;;;;;;;;5030638;28;20924;-69
2021/05/28 02:28:51;;;;;;;6.40;1.63;;;;;;;;;;5043803;28;20460;-69
2021/05/28 02:31:17;;;;;;;0.80;0.60;;;;;;;;;;5049894;28;20365;-69
2021/05/28 02:33:44;;;;;;;1.17;1.00;;;;;;;;;;5050036;28;20481;-69
2021/05/28 02:36:10;;;;;;;0.80;0.50;;;;;;;;;;5050764;28;20457;-69
2021/05/28 02:38:36;;;;;;;1.23;0.50;;;;;;;;;;5050454;28;20812;-69
2021/05/28 02:41:02;;;;;;;4.00;0.87;;;;;;;;;;5033914;28;20412;-69
2021/05/28 02:43:28;;;;;;;1.30;0.87;;;;;;;;;;5030568;28;20786;-69
2021/05/28 02:45:54;;;;;;;1.03;0.80;;;;;;;;;;5030400;28;20416;-69
2021/05/28 02:48:20;;;;;;;0.80;0.50;;;;;;;;;;5041805;28;20418;-69
2021/05/28 02:50:47;;;;;;;2.50;0.83;;;;;;;;;;5053625;28;20377;-68
2021/05/28 02:53:13;;;;;;;0.77;0.50;;;;;;;;;;5037898;28;20477;-69
2021/05/28 02:55:39;;;;;;;0.80;0.60;;;;;;;;;;5034416;28;20469;-69
2021/05/28 02:58:05;;;;;;;0.80;0.60;;;;;;;;;;5034048;28;20390;-69
2021/05/28 03:00:31;;;;;;;3.20;1.57;;;;;;;;;;5044057;28;20385;-69
2021/05/28 03:02:57;;;;;;;2.23;1.07;;;;;;;;;;5054150;28;21067;-68
2021/05/28 03:05:24;;;;;;;0.80;0.60;;;;;;;;;;5038953;28;20411;-69
2021/05/28 03:07:50;;;;;;;2.77;1.00;;;;;;;;;;5034041;28;20464;-67
2021/05/28 03:10:16;;;;;;;1.87;0.80;;;;;;;;;;5040810;28;20449;-69
2021/05/28 03:12:42;;;;;;;1.23;1.00;;;;;;;;;;5053791;28;20409;-69
2021/05/28 03:15:08;;;;;;;2.17;1.90;;;;;;;;;;5053800;28;20499;-69
2021/05/28 03:17:34;;;;;;;0.70;0.50;;;;;;;;;;5038554;28;20908;-69
2021/05/28 03:20:04;;;;;;;0.70;0.50;;;;;;;;;;5032919;28;20508;-69
2021/05/28 03:22:31;;;;;;;1.40;0.83;;;;;;;;;;5041038;28;20469;-69
2021/05/28 03:24:57;;;;;;;1.00;0.77;;;;;;;;;;5047420;28;20412;-68
2021/05/28 03:27:23;;;;;;;0.80;0.70;;;;;;;;;;5042143;28;20490;-68
2021/05/28 03:29:49;;;;;;;0.70;0.60;;;;;;;;;;5041277;28;20438;-68
2021/05/28 03:32:15;;;;;;;0.80;0.77;;;;;;;;;;5043625;28;20448;-68
2021/05/28 03:34:41;;;;;;;1.87;0.60;;;;;;;;;;5041320;28;20431;-69
2021/05/28 03:37:07;;;;;;;0.80;0.80;;;;;;;;;;5044375;28;20938;-68
2021/05/28 03:39:33;;;;;;;0.80;0.57;;;;;;;;;;5050606;28;20417;-68
2021/05/28 03:41:59;;;;;;;1.00;0.60;;;;;;;;;;5052461;28;20406;-68
2021/05/28 03:44:25;;;;;;;0.80;0.60;;;;;;;;;;5053688;28;20890;-69
2021/05/28 03:46:51;;;;;;;0.70;0.40;;;;;;;;;;5052830;28;20451;-69
2021/05/28 03:49:17;;;;;;;1.83;1.00;;;;;;;;;;5020023;28;20770;-67
2021/05/28 03:51:43;;;;;;;1.10;0.60;;;;;;;;;;5035350;28;20374;-68
2021/05/28 03:54:09;;;;;;;0.83;0.67;;;;;;;;;;5052871;28;20824;-68
2021/05/28 03:56:35;;;;;;;0.87;0.60;;;;;;;;;;5052840;28;20453;-69
2021/05/28 03:59:01;;;;;;;1.57;0.93;;;;;;;;;;5076640;22;20834;-68
2021/05/28 04:01:27;;;;;;;0.70;0.60;;;;;;;;;;5070453;28;20442;-69
2021/05/28 04:03:53;;;;;;;1.00;0.60;;;;;;;;;;5072474;28;20393;-71
2021/05/28 04:06:19;;;;;;;1.23;0.60;;;;;;;;;;5072287;28;20464;-70
2021/05/28 04:08:45;;;;;;;1.30;0.97;;;;;;;;;;5072196;28;20425;-70
2021/05/28 04:11:11;;;;;;;1.93;0.60;;;;;;;;;;5067670;28;20434;-69
2021/05/28 04:13:37;;;;;;;0.70;0.57;;;;;;;;;;5072488;28;20405;-69
2021/05/28 04:16:03;;;;;;;0.70;0.60;;;;;;;;;;5071926;28;20416;-69
2021/05/28 04:18:29;;;;;;;3.17;0.90;;;;;;;;;;5072423;28;20406;-71
2021/05/28 04:20:55;;;;;;;1.27;0.70;;;;;;;;;;5071488;28;20392;-71
2021/05/28 04:23:21;;;;;;;1.07;0.80;;;;;;;;;;5060616;28;20418;-70
2021/05/28 04:25:47;;;;;;;1.90;1.27;;;;;;;;;;5071795;28;20485;-70
2021/05/28 04:28:13;;;;;;;2.80;2.60;;;;;;;;;;5053410;28;20511;-72
2021/05/28 04:30:40;;;;;;;1.40;0.90;;;;;;;;;;5046956;28;20431;-70
2021/05/28 04:33:06;;;;;;;0.90;0.60;;;;;;;;;;5062883;28;20430;-71
2021/05/28 04:35:32;;;;;;;1.00;1.00;;;;;;;;;;5053547;28;20426;-71
2021/05/28 04:37:58;;;;;;;1.40;0.60;;;;;;;;;;5052826;28;20414;-70
2021/05/28 04:40:26;;;;;;;1.20;1.00;;;;;;;;;;5070559;28;20446;-70
2021/05/28 04:42:52;;;;;;;1.00;0.60;;;;;;;;;;5072031;28;20485;-70
2021/05/28 04:45:18;;;;;;;0.70;0.50;;;;;;;;;;5071528;28;20821;-70
2021/05/28 04:47:44;;;;;;;1.00;0.60;;;;;;;;;;5070976;28;20559;-70
2021/05/28 04:50:10;;;;;;;1.47;0.80;;;;;;;;;;5070763;28;20456;-70
2021/05/28 04:52:36;;;;;;;0.80;0.60;;;;;;;;;;5071331;28;20405;-69
2021/05/28 04:55:03;;;;;;;2.93;1.10;;;;;;;;;;5070816;28;20767;-69
2021/05/28 04:57:29;;;;;;;0.70;0.50;;;;;;;;;;5068960;28;20492;-69
2021/05/28 04:59:54;;;;;;;2.60;0.70;;;;;;;;;;5069887;28;20969;-69
2021/05/28 05:02:20;;;;;;;0.70;0.60;;;;;;;;;;5071165;28;20419;-67
2021/05/28 05:04:46;;;;;;;2.20;0.63;;;;;;;;;;5070731;28;20422;-70
2021/05/28 05:07:12;;;;;;;0.70;0.50;;;;;;;;;;5071429;28;20420;-72
2021/05/28 05:09:38;;;;;;;1.00;0.80;;;;;;;;;;5069739;28;20518;-69
2021/05/28 05:12:04;;;;;;;0.70;0.50;;;;;;;;;;5071380;28;20375;-72
2021/05/28 05:14:30;;;;;;;0.70;0.50;;;;;;;;;;5036921;28;20486;-70
2021/05/28 05:16:56;;;;;;;0.90;0.73;;;;;;;;;;5055120;28;20541;-71
2021/05/28 05:19:22;;;;;;;1.43;1.17;;;;;;;;;;5048472;28;20933;-71
2021/05/28 05:21:49;;;;;;;1.80;1.30;;;;;;;;;;5064116;28;20389;-72
2021/05/28 05:24:15;;;;;;;0.80;0.70;;;;;;;;;;5060869;28;20385;-69
2021/05/28 05:26:41;;;;;;;1.50;1.30;;;;;;;;;;5032542;28;20446;-69
2021/05/28 05:29:09;;;;;;;1.20;1.10;;;;;;;;;;5059286;28;20472;-70
2021/05/28 05:31:35;;;;;;;1.77;0.83;;;;;;;;;;5036157;28;20440;-71
2021/05/28 05:34:03;;;;;;;1.00;0.90;;;;;;;;;;5064971;28;20385;-71
2021/05/28 05:36:29;;;;;;;3.33;1.97;;;;;;;;;;5070814;28;20905;-70
2021/05/28 05:38:55;;;;;;;4.23;1.43;;;;;;;;;;5069449;28;20389;-72
2021/05/28 05:41:21;;;;;;;0.80;0.70;;;;;;;;;;5069629;28;20461;-72
2021/05/28 05:43:47;;;;;;;0.80;0.60;;;;;;;;;;5070834;28;20376;-72
2021/05/28 05:46:13;;;;;;;1.03;0.93;;;;;;;;;;5069418;28;20393;-65
2021/05/28 05:48:41;;;;;;;4.53;1.30;;;;;;;;;;5069515;28;20405;-70
2021/05/28 05:51:07;;;;;;;0.93;0.60;;;;;;;;;;5065297;28;20474;-72
2021/05/28 05:53:33;;;;;;;2.93;2.17;;;;;;;;;;5070296;28;20380;-70
2021/05/28 05:55:59;;;;;;;1.00;0.70;;;;;;;;;;5070199;28;20899;-70
2021/05/28 05:58:24;;;;;;;1.10;0.80;;;;;;;;;;5070259;28;20955;-71
2021/05/28 06:00:50;;;;;;;0.80;0.60;;;;;;;;;;5069152;28;20948;-70
2021/05/28 06:03:16;;;;;;;1.30;1.20;;;;;;;;;;5064631;28;20394;-70
2021/05/28 06:05:42;;;;;;;1.87;0.90;;;;;;;;;;5069010;28;20387;-69
2021/05/28 06:08:08;;;;;;;0.93;0.60;;;;;;;;;;5070185;28;20844;-70
2021/05/28 06:10:34;;;;;;;0.70;0.50;;;;;;;;;;5069625;28;20466;-71
2021/05/28 06:13:04;;;;;;;2.10;0.90;;;;;;;;;;5068309;28;20392;-70
2021/05/28 06:15:30;;;;;;;1.73;0.90;;;;;;;;;;5061031;28;20870;-70
2021/05/28 06:17:56;;;;;;;1.40;1.10;;;;;;;;;;5065041;28;20411;-70
2021/05/28 06:20:22;;;;;;;1.67;1.17;;;;;;;;;;5063380;28;20498;-70
2021/05/28 06:22:48;;;;;;;1.23;0.77;;;;;;;;;;5056400;28;20427;-68
2021/05/28 06:25:15;;;;;;;1.70;1.10;;;;;;;;;;5055279;28;20401;-70
2021/05/28 06:27:41;;;;;;;1.40;0.70;;;;;;;;;;5060514;28;20469;-69
2021/05/28 06:30:08;;;;;;;3.43;1.43;;;;;;;;;;5063872;28;20426;-68
2021/05/28 06:32:34;;;;;;;0.80;0.60;;;;;;;;;;5064256;28;20491;-70
2021/05/28 06:35:00;;;;;;;1.83;0.73;;;;;;;;;;5070170;28;20484;-69
2021/05/28 06:37:26;;;;;;;5.13;0.93;;;;;;;;;;5070036;28;20881;-70
2021/05/28 06:39:52;;;;;;;1.03;0.73;;;;;;;;;;5069270;28;20425;-68
2021/05/28 06:42:18;;;;;;;0.90;0.73;;;;;;;;;;5069637;28;20399;-71
2021/05/28 06:44:43;;;;;;;1.80;1.33;;;;;;;;;;5069611;28;20429;-67
2021/05/28 06:47:09;;;;;;;0.73;0.43;;;;;;;;;;5069648;28;20646;-69
2021/05/28 06:49:35;;;;;;;2.70;0.70;;;;;;;;;;5065899;28;20425;-70
2021/05/28 06:52:01;;;;;;;1.00;0.50;;;;;;;;;;5070215;28;20375;-70
2021/05/28 06:54:29;;;;;;;0.80;0.73;;;;;;;;;;5068258;28;20459;-70
2021/05/28 06:56:55;;;;;;;0.90;0.67;;;;;;;;;;5070027;28;20796;-67
2021/05/28 06:59:21;;;;;;;1.20;1.10;;;;;;;;;;5068405;28;20458;-71
2021/05/28 07:01:47;;;;;;;1.23;1.13;;;;;;;;;;5069302;28;20425;-71
2021/05/28 07:04:13;;;;;;;1.60;1.50;;;;;;;;;;5069849;28;20443;-70
2021/05/28 07:06:39;;;;;;;3.43;1.10;;;;;;;;;;5069396;28;20438;-69
2021/05/28 07:09:06;;;;;;;1.00;0.70;;;;;;;;;;5069041;28;20402;-69
2021/05/28 07:11:32;;;;;;;0.80;0.60;;;;;;;;;;5068906;28;20409;-70
2021/05/28 07:13:59;;;;;;;1.10;1.00;;;;;;;;;;5069211;28;20718;-69
2021/05/28 07:16:25;;;;;;;3.07;1.27;;;;;;;;;;5069231;28;20397;-70
2021/05/28 07:18:51;;;;;;;1.00;0.90;;;;;;;;;;5064724;28;20383;-70
2021/05/28 07:21:17;;;;;;;2.30;1.90;;;;;;;;;;5062034;28;20631;-70
2021/05/28 07:23:42;;;;;;;7.73;1.10;;;;;;;;;;5056924;28;20513;-70
2021/05/28 07:26:08;;;;;;;0.80;0.70;;;;;;;;;;5064466;28;20539;-70
2021/05/28 07:28:34;;;;;;;1.30;0.67;;;;;;;;;;5052958;28;20506;-68
2021/05/28 07:31:00;;;;;;;1.40;1.20;;;;;;;;;;5061174;28;20434;-68
2021/05/28 07:33:26;;;;;;;1.73;1.23;;;;;;;;;;5061384;28;20393;-68
2021/05/28 07:35:53;;;;;;;1.03;0.70;;;;;;;;;;5053454;28;20406;-71
2021/05/28 07:38:19;;;;;;;1.20;1.10;;;;;;;;;;5056211;28;20405;-71
2021/05/28 07:40:45;;;;;;;2.50;1.17;;;;;;;;;;5067140;28;20506;-68
2021/05/28 07:43:11;;;;;;;1.73;1.10;;;;;;;;;;5060149;28;20410;-71
2021/05/28 07:45:38;;;;;;;1.43;0.73;;;;;;;;;;5065119;28;20415;-71
2021/05/28 07:48:05;;;;;;;2.70;1.30;;;;;;;;;;5062301;28;20494;-71
2021/05/28 07:50:46;;;;;;;1.87;1.60;;;;;;;;;;5069259;28;20447;-69
2021/05/28 07:53:17;;;;;;;2.00;0.83;;;;;;;;;;5066203;28;20437;-70
2021/05/28 07:55:43;;;;;;;1.63;1.10;;;;;;;;;;5065648;28;20473;-70
2021/05/28 07:58:09;;;;;;;0.93;0.77;;;;;;;;;;5070424;28;20411;-70
2021/05/28 08:00:35;;;;;;;5.97;1.80;;;;;;;;;;5070202;28;20451;-70
2021/05/28 08:03:01;;;;;;;1.00;0.90;;;;;;;;;;5071139;28;20416;-72
2021/05/28 08:05:28;;;;;;;1.53;1.00;;;;;;;;;;5071564;28;20413;-70
2021/05/28 08:07:55;;;;;;;2.87;1.50;;;;;;;;;;5072874;28;20493;-69
2021/05/28 08:10:21;;;;;;;2.40;2.20;;;;;;;;;;5053407;28;20436;-69
2021/05/28 08:12:48;;;;;;;1.00;0.90;;;;;;;;;;5072187;28;20805;-69
2021/05/28 08:15:14;;;;;;;3.20;1.30;;;;;;;;;;5052534;28;20508;-69
2021/05/28 08:17:40;;;;;;;1.63;1.00;;;;;;;;;;5072778;28;20428;-70
2021/05/28 08:20:06;;;;;;;3.90;1.77;;;;;;;;;;5063091;28;20415;-70
2021/05/28 08:22:32;;;;;;;1.10;1.00;;;;;;;;;;5068119;28;20453;-69
2021/05/28 08:24:58;;;;;;;3.80;1.90;;;;;;;;;;5069701;28;20456;-70
2021/05/28 08:27:24;;;;;;;1.20;1.10;;;;;;;;;;5071126;28;20578;-69
2021/05/28 08:29:50;;;;;;;2.27;1.50;;;;;;;;;;5069896;28;20437;-69
2021/05/28 08:32:16;;;;;;;1.40;1.10;;;;;;;;;;5070918;28;20426;-70
2021/05/28 08:34:42;;;;;;;2.30;1.73;;;;;;;;;;5071221;28;20769;-70
2021/05/28 08:37:08;;;;;;;2.53;1.07;;;;;;;;;;5053807;28;20432;-68
2021/05/28 08:39:34;;;;;;;1.73;0.87;;;;;;;;;;5068704;28;20399;-70
2021/05/28 08:42:01;;;;;;;2.40;1.67;;;;;;;;;;5064424;28;20380;-70
2021/05/28 08:44:27;;;;;;;1.13;0.93;;;;;;;;;;5068773;28;20414;-71
2021/05/28 08:46:54;;;;;;;3.07;2.13;;;;;;;;;;5056358;28;21011;-71
2021/05/28 08:49:20;;;;;;;3.17;1.30;;;;;;;;;;5048946;28;20512;-70
2021/05/28 08:51:46;;;;;;;2.00;1.00;;;;;;;;;;5071196;28;20424;-71
2021/05/28 08:54:12;;;;;;;1.90;1.43;;;;;;;;;;5071433;28;20455;-70
2021/05/28 08:56:38;;;;;;;1.20;1.10;;;;;;;;;;5071809;28;20385;-71
2021/05/28 08:59:05;;;;;;;1.50;1.40;;;;;;;;;;5063884;28;20385;-69
2021/05/28 09:01:31;;;;;;;1.83;1.60;;;;;;;;;;5061912;28;20905;-69
2021/05/28 09:03:58;;;;;;;2.40;0.90;;;;;;;;;;5059230;28;20587;-68
2021/05/28 09:06:24;;;;;;;0.97;0.80;;;;;;;;;;5061560;28;20396;-69
2021/05/28 09:08:50;;;;;;;1.40;1.00;;;;;;;;;;5052628;28;20871;-68
2021/05/28 09:11:18;;;;;;;1.73;0.80;;;;;;;;;;5070208;28;20821;-69
2021/05/28 09:13:51;;;;;;;1.10;1.00;;;;;;;;;;5070775;28;20424;-69
2021/05/28 09:16:26;;;;;;;1.60;1.50;;;;;;;;;;5070569;28;20480;-67
2021/05/28 09:18:53;;;;;;;1.40;0.90;;;;;;;;;;5065116;28;20369;-70
2021/05/28 09:21:24;;;;;;;2.13;1.13;;;;;;;;;;5062370;28;20423;-70
2021/05/28 09:23:51;;;;;;;4.30;1.40;;;;;;;;;;5061123;28;20971;-69
2021/05/28 09:26:17;;;;;;;1.50;1.20;;;;;;;;;;5060570;28;20387;-70
2021/05/28 09:28:44;;;;;;;1.90;1.67;;;;;;;;;;5061875;28;20488;-69
2021/05/28 09:31:18;;;;;;;1.90;1.50;;;;;;;;;;5065284;28;20765;-68
2021/05/28 09:33:46;;;;;;;3.83;1.80;;;;;;;;;;5071227;28;20397;-68
2021/05/28 09:36:22;;;;;;;5.07;1.50;;;;;;;;;;5047345;28;20415;-69
2021/05/28 09:39:01;;;;;;;1.83;1.10;;;;;;;;;;5067788;28;20501;-69
2021/05/28 09:41:56;;;;;;;2.47;2.27;;;;;;;;;;5071055;28;20462;-69
2021/05/28 09:44:23;;;;;;;2.80;1.20;;;;;;;;;;5064119;28;20699;-69
2021/05/28 09:47:11;;;;;;;1.57;1.10;;;;;;;;;;5061799;28;20441;-71
2021/05/28 09:49:42;;;;;;;1.10;0.80;;;;;;;;;;5051029;28;20451;-68
2021/05/28 09:52:14;;;;;;;2.03;0.90;;;;;;;;;;5060291;28;20474;-69
2021/05/28 09:55:01;;;;;;;1.93;1.50;;;;;;;;;;5066182;28;20470;-67
2021/05/28 09:57:32;;;;;;;3.40;1.07;;;;;;;;;;5059353;28;20385;-69
2021/05/28 09:59:58;;;;;;;1.60;0.83;;;;;;;;;;5080344;22;20482;-68
2021/05/28 10:02:29;;;;;;;2.33;1.00;;;;;;;;;;5061999;28;20402;-67
2021/05/28 10:04:56;;;;;;;3.43;1.70;;;;;;;;;;5052835;28;20950;-68
2021/05/28 10:07:23;;;;;;;2.60;0.93;;;;;;;;;;5051461;28;20473;-68
2021/05/28 10:09:51;;;;;;;1.33;1.03;;;;;;;;;;5049383;28;20816;-68
2021/05/28 10:12:17;;;;;;;1.97;1.33;;;;;;;;;;5050020;28;20373;-69
2021/05/28 10:14:43;;;;;;;1.77;1.30;;;;;;;;;;5052435;28;20406;-68
2021/05/28 10:17:09;;;;;;;2.60;1.90;;;;;;;;;;5065813;28;20411;-68
2021/05/28 10:19:37;;;;;;;2.23;1.23;;;;;;;;;;5049055;28;20433;-67
2021/05/28 10:22:03;;;;;;;1.53;1.17;;;;;;;;;;5060921;28;20845;-69
2021/05/28 10:24:30;;;;;;;1.40;0.93;;;;;;;;;;5061371;28;20415;-69
2021/05/28 10:26:56;;;;;;;1.53;1.43;;;;;;;;;;5043040;28;20421;-68
2021/05/28 10:29:29;;;;;;;1.23;1.13;;;;;;;;;;5059500;28;20396;-68
2021/05/28 10:31:58;;;;;;;2.20;1.57;;;;;;;;;;5043579;28;20435;-68
2021/05/28 10:34:24;;;;;;;3.40;1.20;;;;;;;;;;5069442;28;21027;-68
2021/05/28 10:36:51;;;;;;;1.57;1.20;;;;;;;;;;5053514;28;20393;-68
2021/05/28 10:39:20;;;;;;;1.07;0.97;;;;;;;;;;5053986;28;20465;-68
2021/05/28 10:41:49;;;;;;;1.37;1.27;;;;;;;;;;5069877;28;20925;-68
2021/05/28 10:44:20;;;;;;;2.10;1.37;;;;;;;;;;5057343;28;20776;-68
2021/05/28 10:46:53;;;;;;;1.30;1.10;;;;;;;;;;5062918;28;21043;-68
2021/05/28 10:49:19;;;;;;;9.33;2.03;;;;;;;;;;5057204;28;20410;-68
2021/05/28 10:51:45;;;;;;;1.43;0.83;;;;;;;;;;5061393;28;20789;-68
2021/05/28 10:54:11;;;;;;;6.63;1.53;;;;;;;;;;5058941;28;20494;-68
2021/05/28 10:56:37;;;;;;;1.10;0.90;;;;;;;;;;5065056;28;20175;-68
2021/05/28 10:59:10;;;;;;;1.40;0.93;;;;;;;;;;5055071;28;20593;-68
2021/05/28 11:01:42;;;;;;;1.57;1.00;;;;;;;;;;5063517;28;20204;-68
2021/05/28 11:04:09;;;;;;;1.07;0.77;;;;;;;;;;5057092;28;20410;-68
2021/05/28 11:06:55;;;;;;;2.40;2.17;;;;;;;;;;5057723;28;20469;-68
2021/05/28 11:09:48;;;;;;;2.40;1.17;;;;;;;;;;5041043;28;20402;-68
2021/05/28 11:12:37;;;;;;;2.13;1.97;;;;;;;;;;5069828;28;20464;-68
2021/05/28 11:15:09;;;;;;;3.97;1.70;;;;;;;;;;5069885;28;20420;-68
2021/05/28 11:17:54;;;;;;;1.47;1.07;;;;;;;;;;5061322;28;20384;-68
2021/05/28 11:20:24;;;;;;;1.47;1.20;;;;;;;;;;5058540;28;20424;-68
2021/05/28 11:22:50;;;;;;;1.97;1.53;;;;;;;;;;5062863;28;20422;-69
2021/05/28 11:25:18;;;;;;;0.80;0.80;;;;;;;;;;5068051;28;20747;-68
2021/05/28 11:27:51;;;;;;;3.07;1.53;;;;;;;;;;5073514;28;20460;-69
2021/05/28 11:30:17;;;;;;;3.83;2.13;;;;;;;;;;5058739;28;20510;-68
2021/05/28 11:32:43;;;;;;;1.63;1.37;;;;;;;;;;5064385;28;20407;-68
2021/05/28 11:35:14;;;;;;;1.87;1.10;;;;;;;;;;5072146;28;20400;-68
2021/05/28 11:37:41;;;;;;;2.20;1.73;;;;;;;;;;5068128;28;20431;-68
2021/05/28 11:40:27;;;;;;;1.20;0.90;;;;;;;;;;5064061;28;20438;-68
2021/05/28 11:42:53;;;;;;;1.50;1.27;;;;;;;;;;5038730;28;20450;-68
2021/05/28 11:45:20;;;;;;;1.10;0.80;;;;;;;;;;5058614;28;20398;-69
2021/05/28 11:47:46;;;;;;;2.00;1.53;;;;;;;;;;5058466;28;20432;-68
2021/05/28 11:50:17;;;;;;;1.50;1.40;;;;;;;;;;5064373;28;20393;-68
2021/05/28 11:53:02;;;;;;;4.40;1.70;;;;;;;;;;5061883;28;20425;-68
2021/05/28 11:55:29;;;;;;;1.57;1.00;;;;;;;;;;5072716;28;20441;-68
2021/05/28 11:57:57;;;;;;;1.83;1.10;;;;;;;;;;5067192;28;20444;-68
2021/05/28 12:00:23;;;;;;;7.13;1.57;;;;;;;;;;5070856;28;20485;-68
2021/05/28 12:02:49;;;;;;;2.50;1.20;;;;;;;;;;5071454;28;20831;-69
2021/05/28 12:05:17;;;;;;;1.07;0.97;;;;;;;;;;5066009;28;20762;-69
2021/05/28 12:07:43;;;;;;;1.10;1.00;;;;;;;;;;5033174;28;20450;-69
2021/05/28 12:10:11;;;;;;;2.40;1.70;;;;;;;;;;5059067;28;20400;-68
2021/05/28 12:12:48;;;;;;;2.17;2.00;;;;;;;;;;5050197;28;20419;-68
2021/05/28 12:15:14;;;;;;;1.83;1.00;;;;;;;;;;5049201;28;20909;-69
2021/05/28 12:17:40;;;;;;;1.23;1.03;;;;;;;;;;5029460;28;20513;-68
2021/05/28 12:20:23;;;;;;;1.83;1.00;;;;;;;;;;5047878;28;20462;-69
2021/05/28 12:23:09;;;;;;;1.00;0.80;;;;;;;;;;5046676;28;20390;-68
2021/05/28 12:25:37;;;;;;;2.70;2.50;;;;;;;;;;5050515;28;20413;-68
2021/05/28 12:28:19;;;;;;;9.03;2.10;;;;;;;;;;5050103;28;20954;-69
2021/05/28 12:30:47;;;;;;;3.97;1.10;;;;;;;;;;5032147;28;20593;-68
2021/05/28 12:33:13;;;;;;;1.47;1.17;;;;;;;;;;5050987;28;20490;-68
2021/05/28 12:35:40;;;;;;;3.03;1.20;;;;;;;;;;5048686;28;20414;-68
2021/05/28 12:38:14;;;;;;;1.40;1.07;;;;;;;;;;5050051;28;20403;-69
2021/05/28 12:40:46;;;;;;;1.50;1.30;;;;;;;;;;5049713;28;20825;-69
2021/05/28 12:43:17;;;;;;;3.00;2.27;;;;;;;;;;5050000;28;20416;-68
2021/05/28 12:45:44;;;;;;;1.33;1.00;;;;;;;;;;5050677;28;20418;-68
2021/05/28 12:48:11;;;;;;;1.10;0.97;;;;;;;;;;5049661;28;20552;-68
2021/05/28 12:50:39;;;;;;;2.40;1.20;;;;;;;;;;5049463;28;20423;-68
2021/05/28 12:53:09;;;;;;;2.63;1.60;;;;;;;;;;5053856;28;20488;-69
2021/05/28 12:55:37;;;;;;;2.73;1.40;;;;;;;;;;5050019;28;20407;-68
2021/05/28 12:58:03;;;;;;;1.43;1.33;;;;;;;;;;5049975;28;20378;-68
2021/05/28 13:00:37;;;;;;;1.10;0.90;;;;;;;;;;5048503;28;20434;-69
2021/05/28 13:03:03;;;;;;;2.07;1.27;;;;;;;;;;5050003;28;20382;-68
2021/05/28 13:05:33;;;;;;;1.07;0.87;;;;;;;;;;5049532;28;20411;-68
2021/05/28 13:07:59;;;;;;;0.90;0.80;;;;;;;;;;5048916;28;20600;-69
2021/05/28 13:10:26;;;;;;;1.57;1.17;;;;;;;;;;5046795;28;20419;-69
2021/05/28 13:12:53;;;;;;;1.10;1.00;;;;;;;;;;5053779;28;20452;-69
2021/05/28 13:15:23;;;;;;;1.10;0.90;;;;;;;;;;5049453;28;20951;-69
2021/05/28 13:17:53;;;;;;;1.13;0.70;;;;;;;;;;5046543;28;20411;-69
2021/05/28 13:20:19;;;;;;;2.77;1.30;;;;;;;;;;5047828;28;20843;-68
2021/05/28 13:22:46;;;;;;;1.27;1.07;;;;;;;;;;5060831;28;20524;-68
2021/05/28 13:25:31;;;;;;;1.10;0.70;;;;;;;;;;5055094;28;20771;-68
2021/05/28 13:28:11;;;;;;;1.37;1.13;;;;;;;;;;5052127;28;20469;-69
2021/05/28 13:30:41;;;;;;;1.33;0.97;;;;;;;;;;5053388;28;20773;-68
2021/05/28 13:33:13;;;;;;;1.57;0.90;;;;;;;;;;5048813;28;20460;-69
2021/05/28 13:35:39;;;;;;;1.10;0.93;;;;;;;;;;5050014;28;21115;-69
2021/05/28 13:38:05;;;;;;;4.57;1.43;;;;;;;;;;5056327;28;20397;-69
2021/05/28 13:40:31;;;;;;;2.83;1.83;;;;;;;;;;5064469;28;20405;-69
2021/05/28 13:42:57;;;;;;;7.30;1.23;;;;;;;;;;5059008;28;20750;-69
2021/05/28 13:45:23;;;;;;;1.20;0.67;;;;;;;;;;5068723;28;20423;-69
2021/05/28 13:47:49;;;;;;;4.20;1.23;;;;;;;;;;5068965;28;20465;-69
2021/05/28 13:50:15;;;;;;;3.80;2.10;;;;;;;;;;5057781;28;20397;-69
2021/05/28 13:52:41;;;;;;;1.07;0.97;;;;;;;;;;5067810;28;20418;-69
2021/05/28 13:55:07;;;;;;;1.13;0.90;;;;;;;;;;5060278;28;20406;-69
2021/05/28 13:57:33;;;;;;;1.13;0.87;;;;;;;;;;5050476;28;20407;-69
2021/05/28 13:59:59;;;;;;;2.07;1.17;;;;;;;;;;5048416;28;20450;-69
2021/05/28 14:02:25;;;;;;;3.63;1.33;;;;;;;;;;5049539;28;20917;-69
2021/05/28 14:04:51;;;;;;;1.13;1.03;;;;;;;;;;5052733;28;20723;-69
2021/05/28 14:07:17;;;;;;;10.13;1.43;;;;;;;;;;5061214;28;20492;-69
2021/05/28 14:09:43;;;;;;;7.23;2.93;;;;;;;;;;5054676;28;20410;-69
2021/05/28 14:12:09;;;;;;;6.63;2.70;;;;;;;;;;5051796;28;20452;-69
2021/05/28 14:14:38;;;;;;;3.03;1.40;;;;;;;;;;5058012;28;20462;-69
2021/05/28 14:17:04;;;;;;;1.63;1.00;;;;;;;;;;5069841;28;20920;-68
2021/05/28 14:19:30;;;;;;;1.00;0.90;;;;;;;;;;5053900;28;20422;-69
2021/05/28 14:21:56;;;;;;;8.93;3.00;;;;;;;;;;5068329;28;20833;-69
2021/05/28 14:24:22;;;;;;;7.07;2.30;;;;;;;;;;5055255;28;20454;-68
2021/05/28 14:26:48;;;;;;;1.37;1.10;;;;;;;;;;5054598;28;20916;-69
2021/05/28 14:29:14;;;;;;;2.30;1.00;;;;;;;;;;5045606;28;20390;-69
2021/05/28 14:31:40;;;;;;;1.70;0.90;;;;;;;;;;5059774;28;20881;-69
2021/05/28 14:34:06;;;;;;;1.20;1.00;;;;;;;;;;5061647;28;20386;-69
2021/05/28 14:36:33;;;;;;;1.07;0.97;;;;;;;;;;5044449;28;20377;-69
2021/05/28 14:39:00;;;;;;;1.30;0.70;;;;;;;;;;5053659;28;20398;-68
2021/05/28 14:41:26;;;;;;;1.70;1.60;;;;;;;;;;5068344;28;20404;-68
2021/05/28 14:43:54;;;;;;;1.93;1.07;;;;;;;;;;5065971;28;20439;-69